»·PEaware :: N751LU 49X-L52

N751LU :: 49X-L52

FLIGHT INFORMATION

Flight Status: Arrived
Operator: Privately registered:
United States
More flights under this callsign
Pilot: Ewen S. (18928)
Aircraft: ECLIPSE 500
(EA50)
More flights by this aircraft type
Origin: 49X Chemehuevi Valley
United States
Destination: L52 Oceano Co
United States
More flights between these airports :: More routes between these airports
Route: +EED V12 GVO GLJ
File this flight plan on PilotEdge
Remarks: / L
Altitude:
(Current/Filed)
30,000ft
Speed:
(Current/Filed)
280kts
Departed: 14-Aug-18 12:39 PM
Arrived: 14-Aug-18 02:20 PM
Distance/Time
Traveled:
307nm/1:41
Distance/Time
To Go:
Arrived

Flight Plot

Page will automatically refresh every two minutes.

Flight plan parsing failed; only flown route is shown


Map Options




Map Legend


Flown Route
Filed Route
Departure Airport
Arrival Airport
Navaid (VOR, NDB)
Fix

Horizontal Profiles

Position Reports

Time Latitude Longitude Heading Altitude Ground
Speed
14-Aug-18 12:16 34.529439 -114.430281 179 632ft 0kts
14-Aug-18 12:17 34.529439 -114.430281 179 632ft 0kts
14-Aug-18 12:18 34.529439 -114.430281 179 632ft 0kts
14-Aug-18 12:19 34.529439 -114.430281 179 632ft 0kts
14-Aug-18 12:20 34.529439 -114.430281 179 632ft 0kts
14-Aug-18 12:21 34.529439 -114.430281 179 632ft 0kts
14-Aug-18 12:22 34.529439 -114.430281 179 632ft 0kts
14-Aug-18 12:23 34.529439 -114.430281 179 632ft 0kts
14-Aug-18 12:24 34.529439 -114.430281 180 632ft 0kts
14-Aug-18 12:25 34.529439 -114.430281 180 632ft 0kts
14-Aug-18 12:26 34.529439 -114.430281 180 632ft 0kts
14-Aug-18 12:27 34.529439 -114.430281 180 632ft 0kts
14-Aug-18 12:28 34.529439 -114.430281 180 632ft 0kts
14-Aug-18 12:29 34.529439 -114.430281 180 632ft 0kts
14-Aug-18 12:30 34.529439 -114.430281 180 632ft 0kts
14-Aug-18 12:31 34.529439 -114.430281 180 632ft 0kts
14-Aug-18 12:32 34.529439 -114.430281 180 632ft 0kts
14-Aug-18 12:33 34.529439 -114.430281 180 632ft 0kts
14-Aug-18 12:34 34.529439 -114.430281 180 632ft 0kts
14-Aug-18 12:35 34.529439 -114.430281 180 632ft 0kts
14-Aug-18 12:36 34.529047 -114.430707 182 632ft 4kts
14-Aug-18 12:37 34.530041 -114.430972 0 632ft 11kts
14-Aug-18 12:38 34.534250 -114.430959 0 632ft 17kts
14-Aug-18 12:39 34.535664 -114.431168 287 632ft 2kts
14-Aug-18 12:40 34.530998 -114.431958 179 632ft 80kts
14-Aug-18 12:41 34.512097 -114.417298 29 1643ft 160kts
14-Aug-18 12:42 34.541663 -114.435350 318 3630ft 136kts
14-Aug-18 12:43 34.573824 -114.446886 353 4373ft 187kts
14-Aug-18 12:44 34.623849 -114.452679 349 5832ft 200kts
14-Aug-18 12:45 34.677669 -114.460734 347 7433ft 201kts
14-Aug-18 12:46 34.728711 -114.469231 346 8909ft 198kts
14-Aug-18 12:47 34.759192 -114.498753 278 10092ft 194kts
14-Aug-18 12:48 34.763875 -114.558546 277 11373ft 198kts
14-Aug-18 12:49 34.767020 -114.623096 276 12667ft 201kts
14-Aug-18 12:50 34.769236 -114.681793 275 13705ft 203kts
14-Aug-18 12:51 34.771073 -114.744827 275 14995ft 192kts
14-Aug-18 12:52 34.772298 -114.792688 276 16027ft 184kts
14-Aug-18 12:53 34.773771 -114.855264 276 17104ft 185kts
14-Aug-18 12:54 34.775008 -114.912213 276 18003ft 186kts
14-Aug-18 12:55 34.775990 -114.959513 276 18707ft 188kts
14-Aug-18 12:56 34.777427 -115.031892 276 19705ft 190kts
14-Aug-18 12:57 34.778453 -115.085330 276 20395ft 191kts
14-Aug-18 12:58 34.779624 -115.148209 276 21150ft 192kts
14-Aug-18 12:59 34.780790 -115.213020 276 21874ft 194kts
14-Aug-18 13:00 34.781931 -115.278422 276 22268ft 195kts
14-Aug-18 13:01 34.783035 -115.343736 276 22936ft 196kts
14-Aug-18 13:02 34.784125 -115.410076 276 23695ft 199kts
14-Aug-18 13:03 34.785145 -115.474213 276 24425ft 202kts
14-Aug-18 13:04 34.786176 -115.541389 276 25133ft 205kts
14-Aug-18 13:05 34.787192 -115.609967 276 25799ft 208kts
14-Aug-18 13:06 34.788149 -115.676446 275 25862ft 232kts
14-Aug-18 13:07 34.789145 -115.752066 274 25861ft 257kts
14-Aug-18 13:08 34.789906 -115.814590 274 25859ft 276kts
14-Aug-18 13:09 34.790740 -115.887376 274 25857ft 293kts
14-Aug-18 13:10 34.791789 -115.983312 273 25854ft 308kts
14-Aug-18 13:11 34.792825 -116.083191 273 25853ft 317kts
14-Aug-18 13:12 34.793815 -116.184957 273 25851ft 322kts
14-Aug-18 13:13 34.794763 -116.289536 273 25850ft 324kts
14-Aug-18 13:14 34.795617 -116.392006 273 25849ft 319kts
14-Aug-18 13:15 34.792450 -116.495402 267 25851ft 318kts
14-Aug-18 13:16 34.782593 -116.601133 267 25849ft 317kts
14-Aug-18 13:17 34.772941 -116.700498 266 25855ft 316kts
14-Aug-18 13:18 34.762540 -116.805779 266 25854ft 311kts
14-Aug-18 13:19 34.752256 -116.908939 267 25854ft 306kts
14-Aug-18 13:20 34.742279 -117.008238 267 25854ft 303kts
14-Aug-18 13:21 34.732650 -117.103044 267 25853ft 302kts
14-Aug-18 13:22 34.723024 -117.196889 267 25853ft 301kts
14-Aug-18 13:23 34.712855 -117.295199 267 25852ft 300kts
14-Aug-18 13:24 34.702447 -117.395069 267 25852ft 298kts
14-Aug-18 13:25 34.692019 -117.494424 267 25851ft 297kts
14-Aug-18 13:26 34.681517 -117.593731 267 25851ft 296kts
14-Aug-18 13:27 34.671512 -117.687608 266 25857ft 296kts
14-Aug-18 13:28 34.660890 -117.786524 266 25856ft 297kts
14-Aug-18 13:29 34.653296 -117.856629 268 25855ft 298kts
14-Aug-18 13:30 34.646130 -117.927019 268 25862ft 299kts
14-Aug-18 13:31 34.638694 -117.997100 267 25861ft 301kts
14-Aug-18 13:32 34.631522 -118.066677 270 25862ft 300kts
14-Aug-18 13:33 34.627001 -118.135258 270 25506ft 308kts
14-Aug-18 13:34 34.621740 -118.215156 270 24582ft 311kts
14-Aug-18 13:35 34.615810 -118.304571 270 23876ft 304kts
14-Aug-18 13:36 34.610748 -118.380046 270 23857ft 286kts
14-Aug-18 13:37 34.604617 -118.469601 270 23859ft 289kts
14-Aug-18 13:38 34.599329 -118.547346 270 23858ft 284kts
14-Aug-18 13:39 34.593697 -118.629429 270 23857ft 278kts
14-Aug-18 13:40 34.588179 -118.709100 270 23864ft 276kts
14-Aug-18 13:41 34.582316 -118.792923 270 23863ft 275kts
14-Aug-18 13:42 34.577546 -118.860497 270 23862ft 274kts
14-Aug-18 13:43 34.572677 -118.929199 270 23201ft 284kts
14-Aug-18 13:44 34.566669 -119.012863 270 21782ft 284kts
14-Aug-18 13:45 34.561024 -119.090683 269 19610ft 278kts
14-Aug-18 13:46 34.555590 -119.164993 269 17539ft 272kts
14-Aug-18 13:47 34.549416 -119.248703 269 15435ft 265kts
14-Aug-18 13:48 34.543739 -119.324505 269 13892ft 234kts
14-Aug-18 13:49 34.538220 -119.398474 269 12679ft 240kts
14-Aug-18 13:50 34.532510 -119.473881 269 11424ft 229kts
14-Aug-18 13:51 34.527127 -119.544753 268 10185ft 220kts
14-Aug-18 13:52 34.521517 -119.618517 266 8939ft 223kts
14-Aug-18 13:53 34.516471 -119.683070 266 8881ft 220kts
14-Aug-18 13:54 34.510967 -119.753262 266 8881ft 222kts
14-Aug-18 13:55 34.513899 -119.828511 275 8881ft 224kts
14-Aug-18 13:56 34.517635 -119.885618 275 8881ft 219kts
14-Aug-18 13:57 34.521310 -119.940802 275 8881ft 217kts
14-Aug-18 13:58 34.525785 -120.007675 275 8880ft 215kts
14-Aug-18 13:59 34.529423 -120.062019 275 8880ft 216kts
14-Aug-18 14:00 34.551956 -120.107925 315 8369ft 223kts
14-Aug-18 14:01 34.586047 -120.144586 316 7697ft 223kts
14-Aug-18 14:02 34.621636 -120.181855 317 7276ft 230kts
14-Aug-18 14:03 34.665779 -120.227423 317 6821ft 231kts
14-Aug-18 14:04 34.713737 -120.276622 317 6331ft 232kts
14-Aug-18 14:05 34.762748 -120.326819 317 5890ft 232kts
14-Aug-18 14:06 34.807898 -120.373052 317 5880ft 222kts
14-Aug-18 14:07 34.851711 -120.417985 317 5880ft 221kts
14-Aug-18 14:08 34.886702 -120.453911 317 5704ft 217kts
14-Aug-18 14:09 34.919463 -120.487592 317 5061ft 199kts
14-Aug-18 14:10 34.952104 -120.520331 328 4282ft 196kts
14-Aug-18 14:11 34.986542 -120.543978 329 3900ft 172kts
14-Aug-18 14:12 35.014896 -120.563305 329 3745ft 155kts
14-Aug-18 14:13 35.048265 -120.586055 330 2789ft 177kts
14-Aug-18 14:14 35.081781 -120.572025 85 2572ft 143kts
14-Aug-18 14:15 35.069410 -120.528261 112 1981ft 142kts
14-Aug-18 14:16 35.081999 -120.496847 2 1447ft 151kts
14-Aug-18 14:17 35.092173 -120.529732 277 1056ft 136kts
14-Aug-18 14:18 35.098235 -120.566660 275 756ft 118kts
14-Aug-18 14:19 35.097243 -120.601228 246 363ft 116kts
14-Aug-18 14:20 35.101814 -120.622820 303 17ft 43kts
14-Aug-18 14:21 35.103140 -120.624028 211 17ft 0kts

Navigation Log

Ident Type
Flight plan parsing failed, navigation log unavailable